sensor_id;sensor_type;location;lat;lon;timestamp;temperature;humidity
23873;DHT22;42884;50.718;4.630;2024-03-07T00:01:27;4.50;99.90
23873;DHT22;42884;50.718;4.630;2024-03-07T00:03:53;4.60;99.90
23873;DHT22;42884;50.718;4.630;2024-03-07T00:06:19;4.60;99.90
23873;DHT22;42884;50.718;4.630;2024-03-07T00:08:46;4.50;99.90
23873;DHT22;42884;50.718;4.630;2024-03-07T00:11:12;4.50;99.90
23873;DHT22;42884;50.718;4.630;2024-03-07T00:13:38;4.50;99.90
23873;DHT22;42884;50.718;4.630;2024-03-07T00:16:04;4.50;99.90
23873;DHT22;42884;50.718;4.630;2024-03-07T00:18:30;4.50;99.90
23873;DHT22;42884;50.718;4.630;2024-03-07T00:20:55;4.40;99.90
23873;DHT22;42884;50.718;4.630;2024-03-07T00:23:21;4.30;99.90
23873;DHT22;42884;50.718;4.630;2024-03-07T00:25:47;4.20;99.90
23873;DHT22;42884;50.718;4.630;2024-03-07T00:28:15;4.30;99.90
23873;DHT22;42884;50.718;4.630;2024-03-07T00:30:45;4.20;99.90
23873;DHT22;42884;50.718;4.630;2024-03-07T00:33:12;4.20;99.90
23873;DHT22;42884;50.718;4.630;2024-03-07T00:35:37;4.20;99.90
23873;DHT22;42884;50.718;4.630;2024-03-07T00:38:03;4.30;99.90
23873;DHT22;42884;50.718;4.630;2024-03-07T00:40:29;4.20;99.90
23873;DHT22;42884;50.718;4.630;2024-03-07T00:42:55;4.10;99.90
23873;DHT22;42884;50.718;4.630;2024-03-07T00:45:20;4.10;99.90
23873;DHT22;42884;50.718;4.630;2024-03-07T00:47:46;4.00;99.90
23873;DHT22;42884;50.718;4.630;2024-03-07T00:50:14;4.10;99.90
23873;DHT22;42884;50.718;4.630;2024-03-07T00:52:40;4.10;99.90
23873;DHT22;42884;50.718;4.630;2024-03-07T00:55:06;4.10;99.90
23873;DHT22;42884;50.718;4.630;2024-03-07T00:57:35;4.10;99.90
23873;DHT22;42884;50.718;4.630;2024-03-07T01:00:01;4.10;99.90
23873;DHT22;42884;50.718;4.630;2024-03-07T01:02:27;4.00;99.90
23873;DHT22;42884;50.718;4.630;2024-03-07T01:04:53;4.10;99.90
23873;DHT22;42884;50.718;4.630;2024-03-07T01:07:21;4.00;99.90
23873;DHT22;42884;50.718;4.630;2024-03-07T01:09:49;4.10;99.90
23873;DHT22;42884;50.718;4.630;2024-03-07T01:12:15;4.00;99.90
23873;DHT22;42884;50.718;4.630;2024-03-07T01:14:41;4.00;99.90
23873;DHT22;42884;50.718;4.630;2024-03-07T01:17:06;4.10;99.90
23873;DHT22;42884;50.718;4.630;2024-03-07T01:19:33;4.00;99.90
23873;DHT22;42884;50.718;4.630;2024-03-07T01:21:59;4.00;99.90
23873;DHT22;42884;50.718;4.630;2024-03-07T01:24:25;4.00;99.90
23873;DHT22;42884;50.718;4.630;2024-03-07T01:26:51;4.00;99.90
23873;DHT22;42884;50.718;4.630;2024-03-07T01:29:17;4.00;99.90
23873;DHT22;42884;50.718;4.630;2024-03-07T01:31:43;4.10;99.90
23873;DHT22;42884;50.718;4.630;2024-03-07T01:34:09;3.90;99.90
23873;DHT22;42884;50.718;4.630;2024-03-07T01:36:34;4.00;99.90
23873;DHT22;42884;50.718;4.630;2024-03-07T01:39:00;3.90;99.90
23873;DHT22;42884;50.718;4.630;2024-03-07T01:41:29;3.90;99.90
23873;DHT22;42884;50.718;4.630;2024-03-07T01:43:54;3.90;99.90
23873;DHT22;42884;50.718;4.630;2024-03-07T01:46:20;3.90;99.90
23873;DHT22;42884;50.718;4.630;2024-03-07T01:48:46;3.90;99.90
23873;DHT22;42884;50.718;4.630;2024-03-07T01:51:13;3.80;99.90
23873;DHT22;42884;50.718;4.630;2024-03-07T01:53:39;3.80;99.90
23873;DHT22;42884;50.718;4.630;2024-03-07T01:56:05;3.90;99.90
23873;DHT22;42884;50.718;4.630;2024-03-07T01:58:31;3.80;99.90
23873;DHT22;42884;50.718;4.630;2024-03-07T02:00:59;3.70;99.90
23873;DHT22;42884;50.718;4.630;2024-03-07T02:03:25;3.80;99.90
23873;DHT22;42884;50.718;4.630;2024-03-07T02:05:50;3.70;99.90
23873;DHT22;42884;50.718;4.630;2024-03-07T02:08:17;3.70;99.90
23873;DHT22;42884;50.718;4.630;2024-03-07T02:10:42;3.70;99.90
23873;DHT22;42884;50.718;4.630;2024-03-07T02:13:08;3.60;99.90
23873;DHT22;42884;50.718;4.630;2024-03-07T02:15:34;3.70;99.90
23873;DHT22;42884;50.718;4.630;2024-03-07T02:18:00;3.60;99.90
23873;DHT22;42884;50.718;4.630;2024-03-07T02:20:25;3.60;99.90
23873;DHT22;42884;50.718;4.630;2024-03-07T02:22:54;3.60;99.90
23873;DHT22;42884;50.718;4.630;2024-03-07T02:25:19;3.60;99.90
23873;DHT22;42884;50.718;4.630;2024-03-07T02:27:45;3.60;99.90
23873;DHT22;42884;50.718;4.630;2024-03-07T02:30:11;3.60;99.90
23873;DHT22;42884;50.718;4.630;2024-03-07T02:32:38;3.60;99.90
23873;DHT22;42884;50.718;4.630;2024-03-07T02:35:05;3.60;99.90
23873;DHT22;42884;50.718;4.630;2024-03-07T02:37:31;3.50;99.90
23873;DHT22;42884;50.718;4.630;2024-03-07T02:39:56;3.50;99.90
23873;DHT22;42884;50.718;4.630;2024-03-07T02:42:22;3.50;99.90
23873;DHT22;42884;50.718;4.630;2024-03-07T02:44:48;3.50;99.90
23873;DHT22;42884;50.718;4.630;2024-03-07T02:47:14;3.40;99.90
23873;DHT22;42884;50.718;4.630;2024-03-07T02:49:40;3.40;99.90
23873;DHT22;42884;50.718;4.630;2024-03-07T02:52:05;3.40;99.90
23873;DHT22;42884;50.718;4.630;2024-03-07T02:54:34;3.40;99.90
23873;DHT22;42884;50.718;4.630;2024-03-07T02:57:00;3.30;99.90
23873;DHT22;42884;50.718;4.630;2024-03-07T02:59:26;3.30;99.90
23873;DHT22;42884;50.718;4.630;2024-03-07T03:01:51;3.30;99.90
23873;DHT22;42884;50.718;4.630;2024-03-07T03:04:17;3.20;99.90
23873;DHT22;42884;50.718;4.630;2024-03-07T03:06:43;3.30;99.90
23873;DHT22;42884;50.718;4.630;2024-03-07T03:09:09;3.30;99.90
23873;DHT22;42884;50.718;4.630;2024-03-07T03:11:39;3.30;99.90
23873;DHT22;42884;50.718;4.630;2024-03-07T03:14:05;3.30;99.90
23873;DHT22;42884;50.718;4.630;2024-03-07T03:16:30;3.20;99.90
23873;DHT22;42884;50.718;4.630;2024-03-07T03:18:57;3.20;99.90
23873;DHT22;42884;50.718;4.630;2024-03-07T03:21:23;3.10;99.90
23873;DHT22;42884;50.718;4.630;2024-03-07T03:23:49;3.10;99.90
23873;DHT22;42884;50.718;4.630;2024-03-07T03:26:15;3.10;99.90
23873;DHT22;42884;50.718;4.630;2024-03-07T03:28:41;3.00;99.90
23873;DHT22;42884;50.718;4.630;2024-03-07T03:31:07;3.10;99.90
23873;DHT22;42884;50.718;4.630;2024-03-07T03:33:34;3.00;99.90
23873;DHT22;42884;50.718;4.630;2024-03-07T03:36:00;2.90;99.90
23873;DHT22;42884;50.718;4.630;2024-03-07T03:38:26;3.00;99.90
23873;DHT22;42884;50.718;4.630;2024-03-07T03:40:52;3.00;99.90
23873;DHT22;42884;50.718;4.630;2024-03-07T03:43:18;3.00;99.90
23873;DHT22;42884;50.718;4.630;2024-03-07T03:45:44;2.90;99.90
23873;DHT22;42884;50.718;4.630;2024-03-07T03:48:11;2.90;99.90
23873;DHT22;42884;50.718;4.630;2024-03-07T03:50:36;2.90;99.90
23873;DHT22;42884;50.718;4.630;2024-03-07T03:53:02;2.90;99.90
23873;DHT22;42884;50.718;4.630;2024-03-07T03:55:29;2.80;99.90
23873;DHT22;42884;50.718;4.630;2024-03-07T03:57:55;2.80;99.90
23873;DHT22;42884;50.718;4.630;2024-03-07T04:00:20;2.80;99.90
23873;DHT22;42884;50.718;4.630;2024-03-07T04:02:48;2.80;99.90
23873;DHT22;42884;50.718;4.630;2024-03-07T04:05:15;2.80;99.90
23873;DHT22;42884;50.718;4.630;2024-03-07T04:07:41;2.80;99.90
23873;DHT22;42884;50.718;4.630;2024-03-07T04:10:07;2.70;99.90
23873;DHT22;42884;50.718;4.630;2024-03-07T04:12:34;2.70;99.90
23873;DHT22;42884;50.718;4.630;2024-03-07T04:14:59;2.80;99.90
23873;DHT22;42884;50.718;4.630;2024-03-07T04:17:26;2.80;99.90
23873;DHT22;42884;50.718;4.630;2024-03-07T04:19:52;2.80;99.90
23873;DHT22;42884;50.718;4.630;2024-03-07T04:22:18;2.70;99.90
23873;DHT22;42884;50.718;4.630;2024-03-07T04:24:47;2.60;99.90
23873;DHT22;42884;50.718;4.630;2024-03-07T04:27:13;2.70;99.90
23873;DHT22;42884;50.718;4.630;2024-03-07T04:29:39;2.60;99.90
23873;DHT22;42884;50.718;4.630;2024-03-07T04:32:05;2.60;99.90
23873;DHT22;42884;50.718;4.630;2024-03-07T04:34:31;2.60;99.90
23873;DHT22;42884;50.718;4.630;2024-03-07T04:36:57;2.60;99.90
23873;DHT22;42884;50.718;4.630;2024-03-07T04:39:24;2.60;99.90
23873;DHT22;42884;50.718;4.630;2024-03-07T04:44:27;2.50;99.90
23873;DHT22;42884;50.718;4.630;2024-03-07T04:46:54;2.50;99.90
23873;DHT22;42884;50.718;4.630;2024-03-07T04:49:26;2.50;99.90
23873;DHT22;42884;50.718;4.630;2024-03-07T04:51:55;2.50;99.90
23873;DHT22;42884;50.718;4.630;2024-03-07T04:54:22;2.50;99.90
23873;DHT22;42884;50.718;4.630;2024-03-07T04:56:49;2.50;99.90
23873;DHT22;42884;50.718;4.630;2024-03-07T04:59:16;2.50;99.90
23873;DHT22;42884;50.718;4.630;2024-03-07T05:01:43;2.40;99.90
23873;DHT22;42884;50.718;4.630;2024-03-07T05:04:09;2.40;99.90
23873;DHT22;42884;50.718;4.630;2024-03-07T05:06:35;2.40;99.90
23873;DHT22;42884;50.718;4.630;2024-03-07T05:09:05;2.40;99.90
23873;DHT22;42884;50.718;4.630;2024-03-07T05:11:36;2.40;99.90
23873;DHT22;42884;50.718;4.630;2024-03-07T05:14:02;2.50;99.90
23873;DHT22;42884;50.718;4.630;2024-03-07T05:16:30;2.50;99.90
23873;DHT22;42884;50.718;4.630;2024-03-07T05:18:56;2.50;99.90
23873;DHT22;42884;50.718;4.630;2024-03-07T05:21:26;2.60;99.90
23873;DHT22;42884;50.718;4.630;2024-03-07T05:23:58;2.70;99.90
23873;DHT22;42884;50.718;4.630;2024-03-07T05:26:24;2.80;99.90
23873;DHT22;42884;50.718;4.630;2024-03-07T05:28:50;2.80;99.90
23873;DHT22;42884;50.718;4.630;2024-03-07T05:31:17;2.90;99.90
23873;DHT22;42884;50.718;4.630;2024-03-07T05:33:44;3.00;99.90
23873;DHT22;42884;50.718;4.630;2024-03-07T05:36:10;3.10;99.90
23873;DHT22;42884;50.718;4.630;2024-03-07T05:38:44;3.10;99.90
23873;DHT22;42884;50.718;4.630;2024-03-07T05:41:13;3.20;99.90
23873;DHT22;42884;50.718;4.630;2024-03-07T05:43:39;3.20;99.90
23873;DHT22;42884;50.718;4.630;2024-03-07T05:46:05;3.40;99.90
23873;DHT22;42884;50.718;4.630;2024-03-07T05:48:33;3.50;99.90
23873;DHT22;42884;50.718;4.630;2024-03-07T05:50:59;3.50;99.90
23873;DHT22;42884;50.718;4.630;2024-03-07T05:53:25;3.60;99.90
23873;DHT22;42884;50.718;4.630;2024-03-07T05:55:51;3.70;99.90
23873;DHT22;42884;50.718;4.630;2024-03-07T05:58:17;3.80;99.90
23873;DHT22;42884;50.718;4.630;2024-03-07T06:00:46;3.80;99.90
23873;DHT22;42884;50.718;4.630;2024-03-07T06:03:19;3.90;99.90
23873;DHT22;42884;50.718;4.630;2024-03-07T06:05:49;3.90;99.90
23873;DHT22;42884;50.718;4.630;2024-03-07T06:08:16;4.00;99.90
23873;DHT22;42884;50.718;4.630;2024-03-07T06:10:46;4.20;99.90
23873;DHT22;42884;50.718;4.630;2024-03-07T06:13:13;4.30;99.90
23873;DHT22;42884;50.718;4.630;2024-03-07T06:15:39;4.30;99.90
23873;DHT22;42884;50.718;4.630;2024-03-07T06:18:05;4.40;99.90
23873;DHT22;42884;50.718;4.630;2024-03-07T06:20:31;4.50;99.90
23873;DHT22;42884;50.718;4.630;2024-03-07T06:22:57;4.50;99.90
23873;DHT22;42884;50.718;4.630;2024-03-07T06:25:23;4.60;99.90
23873;DHT22;42884;50.718;4.630;2024-03-07T06:28:03;4.70;99.90
23873;DHT22;42884;50.718;4.630;2024-03-07T06:30:42;4.80;99.90
23873;DHT22;42884;50.718;4.630;2024-03-07T06:33:11;4.90;99.90
23873;DHT22;42884;50.718;4.630;2024-03-07T06:35:38;5.00;99.90
23873;DHT22;42884;50.718;4.630;2024-03-07T06:38:08;5.10;99.90
23873;DHT22;42884;50.718;4.630;2024-03-07T06:40:35;5.30;99.90
23873;DHT22;42884;50.718;4.630;2024-03-07T06:43:02;5.30;99.90
23873;DHT22;42884;50.718;4.630;2024-03-07T06:45:34;5.40;99.90
23873;DHT22;42884;50.718;4.630;2024-03-07T06:48:01;5.40;99.90
23873;DHT22;42884;50.718;4.630;2024-03-07T06:50:26;5.40;99.90
23873;DHT22;42884;50.718;4.630;2024-03-07T06:52:54;5.50;99.90
23873;DHT22;42884;50.718;4.630;2024-03-07T06:55:21;5.60;99.90
23873;DHT22;42884;50.718;4.630;2024-03-07T06:57:47;5.70;99.90
23873;DHT22;42884;50.718;4.630;2024-03-07T07:00:13;5.80;99.90
23873;DHT22;42884;50.718;4.630;2024-03-07T07:02:44;5.80;99.90
23873;DHT22;42884;50.718;4.630;2024-03-07T07:05:10;6.00;99.90
23873;DHT22;42884;50.718;4.630;2024-03-07T07:07:41;6.00;99.90
23873;DHT22;42884;50.718;4.630;2024-03-07T07:10:08;6.10;99.90
23873;DHT22;42884;50.718;4.630;2024-03-07T07:12:46;6.20;99.90
23873;DHT22;42884;50.718;4.630;2024-03-07T07:15:14;6.20;99.90
23873;DHT22;42884;50.718;4.630;2024-03-07T07:17:44;6.20;99.90
23873;DHT22;42884;50.718;4.630;2024-03-07T07:20:12;6.30;99.90
23873;DHT22;42884;50.718;4.630;2024-03-07T07:22:41;6.40;99.90
23873;DHT22;42884;50.718;4.630;2024-03-07T07:25:07;6.20;99.90
23873;DHT22;42884;50.718;4.630;2024-03-07T07:27:45;6.40;99.90
23873;DHT22;42884;50.718;4.630;2024-03-07T07:30:12;6.50;99.90
23873;DHT22;42884;50.718;4.630;2024-03-07T07:32:39;6.40;99.90
23873;DHT22;42884;50.718;4.630;2024-03-07T07:35:05;6.40;99.90
23873;DHT22;42884;50.718;4.630;2024-03-07T07:37:41;6.20;99.90
23873;DHT22;42884;50.718;4.630;2024-03-07T07:40:08;6.10;99.90
23873;DHT22;42884;50.718;4.630;2024-03-07T07:42:38;6.20;99.90
23873;DHT22;42884;50.718;4.630;2024-03-07T07:45:06;6.40;99.90
23873;DHT22;42884;50.718;4.630;2024-03-07T07:47:32;6.50;99.90
23873;DHT22;42884;50.718;4.630;2024-03-07T07:49:58;6.60;99.90
23873;DHT22;42884;50.718;4.630;2024-03-07T07:52:24;6.60;99.90
23873;DHT22;42884;50.718;4.630;2024-03-07T07:54:50;6.50;99.90
23873;DHT22;42884;50.718;4.630;2024-03-07T07:57:15;6.20;99.90
23873;DHT22;42884;50.718;4.630;2024-03-07T07:59:41;6.40;99.90
23873;DHT22;42884;50.718;4.630;2024-03-07T08:02:07;6.50;99.90
23873;DHT22;42884;50.718;4.630;2024-03-07T08:04:32;6.40;99.90
23873;DHT22;42884;50.718;4.630;2024-03-07T08:06:59;6.30;99.90
23873;DHT22;42884;50.718;4.630;2024-03-07T08:09:25;6.40;99.90
23873;DHT22;42884;50.718;4.630;2024-03-07T08:11:51;6.50;99.90
23873;DHT22;42884;50.718;4.630;2024-03-07T08:14:18;6.50;99.90
23873;DHT22;42884;50.718;4.630;2024-03-07T08:16:48;6.50;99.90
23873;DHT22;42884;50.718;4.630;2024-03-07T08:19:13;6.50;99.90
23873;DHT22;42884;50.718;4.630;2024-03-07T08:21:40;6.40;99.90
23873;DHT22;42884;50.718;4.630;2024-03-07T08:24:05;6.40;99.90
23873;DHT22;42884;50.718;4.630;2024-03-07T08:26:36;6.40;99.90
23873;DHT22;42884;50.718;4.630;2024-03-07T08:29:02;6.30;99.90
23873;DHT22;42884;50.718;4.630;2024-03-07T08:31:28;6.50;99.90
23873;DHT22;42884;50.718;4.630;2024-03-07T08:33:54;6.30;99.90
23873;DHT22;42884;50.718;4.630;2024-03-07T08:36:20;6.40;99.90
23873;DHT22;42884;50.718;4.630;2024-03-07T08:38:45;6.30;99.90
23873;DHT22;42884;50.718;4.630;2024-03-07T08:41:12;6.20;99.90
23873;DHT22;42884;50.718;4.630;2024-03-07T08:43:37;6.30;99.90
23873;DHT22;42884;50.718;4.630;2024-03-07T08:46:03;6.20;99.90
23873;DHT22;42884;50.718;4.630;2024-03-07T08:48:29;6.20;99.90
23873;DHT22;42884;50.718;4.630;2024-03-07T08:50:54;6.30;99.90
23873;DHT22;42884;50.718;4.630;2024-03-07T08:53:20;6.40;99.90
23873;DHT22;42884;50.718;4.630;2024-03-07T08:55:46;6.50;99.90
23873;DHT22;42884;50.718;4.630;2024-03-07T08:58:12;6.50;99.90
23873;DHT22;42884;50.718;4.630;2024-03-07T09:00:37;6.50;99.90
23873;DHT22;42884;50.718;4.630;2024-03-07T09:03:03;6.40;99.90
23873;DHT22;42884;50.718;4.630;2024-03-07T09:05:31;6.60;99.90
23873;DHT22;42884;50.718;4.630;2024-03-07T09:07:59;6.70;99.90
23873;DHT22;42884;50.718;4.630;2024-03-07T09:10:24;6.90;99.90
23873;DHT22;42884;50.718;4.630;2024-03-07T09:12:51;6.90;99.90
23873;DHT22;42884;50.718;4.630;2024-03-07T09:15:17;7.00;99.90
23873;DHT22;42884;50.718;4.630;2024-03-07T09:17:44;7.00;99.90
23873;DHT22;42884;50.718;4.630;2024-03-07T09:20:11;7.10;99.90
23873;DHT22;42884;50.718;4.630;2024-03-07T09:22:46;7.30;99.90
23873;DHT22;42884;50.718;4.630;2024-03-07T09:25:16;7.20;99.90
23873;DHT22;42884;50.718;4.630;2024-03-07T09:27:42;7.30;99.90
23873;DHT22;42884;50.718;4.630;2024-03-07T09:30:09;7.40;99.90
23873;DHT22;42884;50.718;4.630;2024-03-07T09:32:46;7.50;99.90
23873;DHT22;42884;50.718;4.630;2024-03-07T09:35:12;7.50;99.90
23873;DHT22;42884;50.718;4.630;2024-03-07T09:37:43;7.70;99.90
23873;DHT22;42884;50.718;4.630;2024-03-07T09:40:10;7.80;99.90
23873;DHT22;42884;50.718;4.630;2024-03-07T09:42:46;7.90;99.90
23873;DHT22;42884;50.718;4.630;2024-03-07T09:45:20;8.10;99.90
23873;DHT22;42884;50.718;4.630;2024-03-07T09:47:49;8.50;99.90
23873;DHT22;42884;50.718;4.630;2024-03-07T09:50:17;8.80;99.90
23873;DHT22;42884;50.718;4.630;2024-03-07T09:52:48;9.20;99.90
23873;DHT22;42884;50.718;4.630;2024-03-07T09:55:18;9.30;99.90
23873;DHT22;42884;50.718;4.630;2024-03-07T09:57:49;10.00;99.90
23873;DHT22;42884;50.718;4.630;2024-03-07T10:00:20;11.00;99.90
23873;DHT22;42884;50.718;4.630;2024-03-07T10:02:55;11.20;99.90
23873;DHT22;42884;50.718;4.630;2024-03-07T10:05:22;12.10;99.90
23873;DHT22;42884;50.718;4.630;2024-03-07T10:07:49;13.00;99.90
23873;DHT22;42884;50.718;4.630;2024-03-07T10:10:16;13.50;99.90
23873;DHT22;42884;50.718;4.630;2024-03-07T10:12:43;14.10;99.90
23873;DHT22;42884;50.718;4.630;2024-03-07T10:15:10;13.50;99.90
23873;DHT22;42884;50.718;4.630;2024-03-07T10:17:39;13.90;99.90
23873;DHT22;42884;50.718;4.630;2024-03-07T10:20:08;14.70;99.90
23873;DHT22;42884;50.718;4.630;2024-03-07T10:22:39;15.60;99.90
23873;DHT22;42884;50.718;4.630;2024-03-07T10:25:06;15.40;99.90
23873;DHT22;42884;50.718;4.630;2024-03-07T10:27:31;15.10;99.90
23873;DHT22;42884;50.718;4.630;2024-03-07T10:29:57;15.40;99.90
23873;DHT22;42884;50.718;4.630;2024-03-07T10:32:23;16.00;99.90
23873;DHT22;42884;50.718;4.630;2024-03-07T10:34:53;16.00;99.90
23873;DHT22;42884;50.718;4.630;2024-03-07T10:37:19;16.00;99.90
23873;DHT22;42884;50.718;4.630;2024-03-07T10:39:50;16.20;99.90
23873;DHT22;42884;50.718;4.630;2024-03-07T10:42:17;16.80;99.90
23873;DHT22;42884;50.718;4.630;2024-03-07T10:44:45;17.20;99.90
23873;DHT22;42884;50.718;4.630;2024-03-07T10:47:18;17.60;99.90
23873;DHT22;42884;50.718;4.630;2024-03-07T10:50:13;17.60;99.90
23873;DHT22;42884;50.718;4.630;2024-03-07T10:55:30;17.80;99.90
23873;DHT22;42884;50.718;4.630;2024-03-07T10:58:05;17.20;99.90
23873;DHT22;42884;50.718;4.630;2024-03-07T11:00:38;17.10;99.90
23873;DHT22;42884;50.718;4.630;2024-03-07T11:03:11;16.90;99.90
23873;DHT22;42884;50.718;4.630;2024-03-07T11:05:37;17.40;99.90
23873;DHT22;42884;50.718;4.630;2024-03-07T11:08:05;17.80;99.90
23873;DHT22;42884;50.718;4.630;2024-03-07T11:10:37;17.40;99.90
23873;DHT22;42884;50.718;4.630;2024-03-07T11:13:08;17.30;99.90
23873;DHT22;42884;50.718;4.630;2024-03-07T11:15:42;17.50;99.90
23873;DHT22;42884;50.718;4.630;2024-03-07T11:18:10;17.40;99.90
23873;DHT22;42884;50.718;4.630;2024-03-07T11:20:39;17.00;99.90
23873;DHT22;42884;50.718;4.630;2024-03-07T11:23:27;17.40;99.90
23873;DHT22;42884;50.718;4.630;2024-03-07T11:26:05;17.20;99.90
23873;DHT22;42884;50.718;4.630;2024-03-07T11:28:35;17.40;99.90
23873;DHT22;42884;50.718;4.630;2024-03-07T11:31:27;16.60;99.90
23873;DHT22;42884;50.718;4.630;2024-03-07T11:36:47;15.70;99.90
23873;DHT22;42884;50.718;4.630;2024-03-07T11:39:40;15.00;99.90
23873;DHT22;42884;50.718;4.630;2024-03-07T11:42:18;14.50;99.90
23873;DHT22;42884;50.718;4.630;2024-03-07T11:44:45;14.00;99.90
23873;DHT22;42884;50.718;4.630;2024-03-07T11:47:12;13.70;99.90
23873;DHT22;42884;50.718;4.630;2024-03-07T11:49:39;13.20;99.90
23873;DHT22;42884;50.718;4.630;2024-03-07T11:52:05;12.90;99.90
23873;DHT22;42884;50.718;4.630;2024-03-07T11:54:51;13.10;99.90
23873;DHT22;42884;50.718;4.630;2024-03-07T11:57:21;14.10;99.90
23873;DHT22;42884;50.718;4.630;2024-03-07T11:59:58;15.00;99.90
23873;DHT22;42884;50.718;4.630;2024-03-07T12:02:27;15.40;99.90
23873;DHT22;42884;50.718;4.630;2024-03-07T12:04:55;15.00;99.90
23873;DHT22;42884;50.718;4.630;2024-03-07T12:07:20;14.60;99.90
23873;DHT22;42884;50.718;4.630;2024-03-07T12:09:48;14.40;99.90
23873;DHT22;42884;50.718;4.630;2024-03-07T12:12:20;14.40;99.90
23873;DHT22;42884;50.718;4.630;2024-03-07T12:14:56;14.10;99.90
23873;DHT22;42884;50.718;4.630;2024-03-07T12:17:22;13.70;99.90
23873;DHT22;42884;50.718;4.630;2024-03-07T12:19:49;13.30;99.90
23873;DHT22;42884;50.718;4.630;2024-03-07T12:22:21;13.20;99.90
23873;DHT22;42884;50.718;4.630;2024-03-07T12:25:00;13.70;99.90
23873;DHT22;42884;50.718;4.630;2024-03-07T12:27:31;14.10;99.90
23873;DHT22;42884;50.718;4.630;2024-03-07T12:29:57;14.50;99.90
23873;DHT22;42884;50.718;4.630;2024-03-07T12:32:27;14.60;99.90
23873;DHT22;42884;50.718;4.630;2024-03-07T12:34:53;15.00;99.90
23873;DHT22;42884;50.718;4.630;2024-03-07T12:37:19;15.60;99.90
23873;DHT22;42884;50.718;4.630;2024-03-07T12:39:52;16.30;99.90
23873;DHT22;42884;50.718;4.630;2024-03-07T12:42:27;17.10;99.90
23873;DHT22;42884;50.718;4.630;2024-03-07T12:44:54;17.30;99.90
23873;DHT22;42884;50.718;4.630;2024-03-07T12:47:20;16.60;99.90
23873;DHT22;42884;50.718;4.630;2024-03-07T12:49:46;16.00;99.90
23873;DHT22;42884;50.718;4.630;2024-03-07T12:52:13;15.80;99.90
23873;DHT22;42884;50.718;4.630;2024-03-07T12:54:41;15.80;99.90
23873;DHT22;42884;50.718;4.630;2024-03-07T12:57:10;15.90;99.90
23873;DHT22;42884;50.718;4.630;2024-03-07T12:59:38;16.10;99.90
23873;DHT22;42884;50.718;4.630;2024-03-07T13:02:10;16.50;99.90
23873;DHT22;42884;50.718;4.630;2024-03-07T13:04:36;16.70;99.90
23873;DHT22;42884;50.718;4.630;2024-03-07T13:07:06;16.50;99.90
23873;DHT22;42884;50.718;4.630;2024-03-07T13:09:35;17.30;99.90
23873;DHT22;42884;50.718;4.630;2024-03-07T13:12:01;18.00;99.90
23873;DHT22;42884;50.718;4.630;2024-03-07T13:14:29;18.10;99.90
23873;DHT22;42884;50.718;4.630;2024-03-07T13:17:07;18.00;99.90
23873;DHT22;42884;50.718;4.630;2024-03-07T13:19:33;17.70;99.90
23873;DHT22;42884;50.718;4.630;2024-03-07T13:21:59;17.90;99.90
23873;DHT22;42884;50.718;4.630;2024-03-07T13:24:27;17.40;99.90
23873;DHT22;42884;50.718;4.630;2024-03-07T13:26:53;17.70;99.90
23873;DHT22;42884;50.718;4.630;2024-03-07T13:29:19;18.60;99.90
23873;DHT22;42884;50.718;4.630;2024-03-07T13:31:50;18.70;99.90
23873;DHT22;42884;50.718;4.630;2024-03-07T13:34:16;19.10;99.90
23873;DHT22;42884;50.718;4.630;2024-03-07T13:36:42;18.80;99.90
23873;DHT22;42884;50.718;4.630;2024-03-07T13:39:12;18.70;99.90
23873;DHT22;42884;50.718;4.630;2024-03-07T13:41:40;18.90;99.90
23873;DHT22;42884;50.718;4.630;2024-03-07T13:44:06;18.70;99.90
23873;DHT22;42884;50.718;4.630;2024-03-07T13:46:32;18.70;99.90
23873;DHT22;42884;50.718;4.630;2024-03-07T13:49:02;19.20;99.90
23873;DHT22;42884;50.718;4.630;2024-03-07T13:51:39;19.30;99.90
23873;DHT22;42884;50.718;4.630;2024-03-07T13:54:16;18.90;99.90
23873;DHT22;42884;50.718;4.630;2024-03-07T13:57:29;18.30;99.90
23873;DHT22;42884;50.718;4.630;2024-03-07T14:06:00;18.30;99.90
23873;DHT22;42884;50.718;4.630;2024-03-07T14:32:37;17.80;99.90
23873;DHT22;42884;50.718;4.630;2024-03-07T14:35:23;18.30;99.90
23873;DHT22;42884;50.718;4.630;2024-03-07T14:40:30;17.60;99.90
23873;DHT22;42884;50.718;4.630;2024-03-07T14:42:57;17.50;99.90
23873;DHT22;42884;50.718;4.630;2024-03-07T14:45:30;16.70;99.90
23873;DHT22;42884;50.718;4.630;2024-03-07T14:47:57;15.90;99.90
23873;DHT22;42884;50.718;4.630;2024-03-07T14:50:24;15.70;99.90
23873;DHT22;42884;50.718;4.630;2024-03-07T14:52:52;15.30;99.90
23873;DHT22;42884;50.718;4.630;2024-03-07T14:55:18;14.90;99.90
23873;DHT22;42884;50.718;4.630;2024-03-07T14:57:45;14.40;99.90
23873;DHT22;42884;50.718;4.630;2024-03-07T15:00:12;14.00;99.90
23873;DHT22;42884;50.718;4.630;2024-03-07T15:02:52;13.80;99.90
23873;DHT22;42884;50.718;4.630;2024-03-07T15:05:22;13.90;99.90
23873;DHT22;42884;50.718;4.630;2024-03-07T15:07:53;14.00;99.90
23873;DHT22;42884;50.718;4.630;2024-03-07T15:10:26;13.90;99.90
23873;DHT22;42884;50.718;4.630;2024-03-07T15:12:53;13.80;99.90
23873;DHT22;42884;50.718;4.630;2024-03-07T15:15:18;13.50;99.90
23873;DHT22;42884;50.718;4.630;2024-03-07T15:17:48;13.30;99.90
23873;DHT22;42884;50.718;4.630;2024-03-07T15:20:14;12.90;99.90
23873;DHT22;42884;50.718;4.630;2024-03-07T15:22:59;13.00;99.90
23873;DHT22;42884;50.718;4.630;2024-03-07T15:25:26;13.30;99.90
23873;DHT22;42884;50.718;4.630;2024-03-07T15:27:53;13.40;99.90
23873;DHT22;42884;50.718;4.630;2024-03-07T15:30:22;13.20;99.90
23873;DHT22;42884;50.718;4.630;2024-03-07T15:32:51;13.10;99.90
23873;DHT22;42884;50.718;4.630;2024-03-07T15:35:17;13.10;99.90
23873;DHT22;42884;50.718;4.630;2024-03-07T15:37:43;12.70;99.90
23873;DHT22;42884;50.718;4.630;2024-03-07T15:40:10;12.70;99.90
23873;DHT22;42884;50.718;4.630;2024-03-07T15:42:44;12.90;99.90
23873;DHT22;42884;50.718;4.630;2024-03-07T15:45:17;12.60;99.90
23873;DHT22;42884;50.718;4.630;2024-03-07T15:47:56;12.60;99.90
23873;DHT22;42884;50.718;4.630;2024-03-07T15:50:25;12.50;99.90
23873;DHT22;42884;50.718;4.630;2024-03-07T15:52:56;12.40;99.90
23873;DHT22;42884;50.718;4.630;2024-03-07T15:55:23;12.40;99.90
23873;DHT22;42884;50.718;4.630;2024-03-07T15:57:53;12.10;99.90
23873;DHT22;42884;50.718;4.630;2024-03-07T16:00:21;12.30;99.90
23873;DHT22;42884;50.718;4.630;2024-03-07T16:05:20;12.40;99.90
23873;DHT22;42884;50.718;4.630;2024-03-07T16:07:51;12.10;99.90
23873;DHT22;42884;50.718;4.630;2024-03-07T16:10:19;11.90;99.90
23873;DHT22;42884;50.718;4.630;2024-03-07T16:12:45;11.80;99.90
23873;DHT22;42884;50.718;4.630;2024-03-07T16:15:12;11.70;99.90
23873;DHT22;42884;50.718;4.630;2024-03-07T16:17:38;11.60;99.90
23873;DHT22;42884;50.718;4.630;2024-03-07T16:20:04;11.60;99.90
23873;DHT22;42884;50.718;4.630;2024-03-07T16:22:41;11.50;99.90
23873;DHT22;42884;50.718;4.630;2024-03-07T16:25:08;11.60;99.90
23873;DHT22;42884;50.718;4.630;2024-03-07T16:27:35;11.60;99.90
23873;DHT22;42884;50.718;4.630;2024-03-07T16:30:03;11.50;99.90